Time;durP1;ratioP1;P1;durP2;ratioP2;P2;SDS_P1;SDS_P2;PMS_P1;PMS_P2;Temp;Humidity;BMP_temperature;BMP_pressure;BME280_temperature;BME280_humidity;BME280_pressure;Samples;Min_cycle;Max_cycle;Signal;HPM_P1;HPM_P2
2022/05/21 00:01:16;;;;;;;5.57;5.07;;;;;;;;;;5036761;28;20453;-79
2022/05/21 00:03:43;;;;;;;5.70;4.83;;;;;;;;;;5045468;28;20515;-79
2022/05/21 00:06:10;;;;;;;5.27;4.87;;;;;;;;;;5051765;28;20917;-78
2022/05/21 00:08:37;;;;;;;5.57;5.10;;;;;;;;;;5050820;28;20481;-77
2022/05/21 00:11:06;;;;;;;5.10;4.70;;;;;;;;;;5051318;28;20559;-76
2022/05/21 00:13:33;;;;;;;5.40;4.93;;;;;;;;;;5050725;28;20946;-76
2022/05/21 00:16:00;;;;;;;5.70;5.20;;;;;;;;;;5051332;28;20521;-77
2022/05/21 00:18:27;;;;;;;5.30;4.80;;;;;;;;;;5051152;28;20474;-76
2022/05/21 00:20:54;;;;;;;4.87;4.47;;;;;;;;;;5051387;28;20503;-77
2022/05/21 00:23:23;;;;;;;5.33;4.83;;;;;;;;;;5050691;28;20457;-77
2022/05/21 00:25:52;;;;;;;4.80;4.50;;;;;;;;;;5051511;28;20555;-77
2022/05/21 00:28:20;;;;;;;4.93;4.43;;;;;;;;;;5051133;28;20890;-76
2022/05/21 00:30:47;;;;;;;4.40;4.10;;;;;;;;;;5051042;28;20457;-77
2022/05/21 00:33:15;;;;;;;4.63;4.33;;;;;;;;;;5050813;28;20445;-77
2022/05/21 00:35:42;;;;;;;4.23;3.93;;;;;;;;;;5050990;28;20543;-76
2022/05/21 00:38:09;;;;;;;4.83;4.47;;;;;;;;;;5051025;28;20462;-77
2022/05/21 00:40:37;;;;;;;4.50;4.20;;;;;;;;;;5051457;28;20537;-77
2022/05/21 00:43:04;;;;;;;4.23;3.93;;;;;;;;;;5050875;28;20811;-77
2022/05/21 00:45:33;;;;;;;4.33;4.03;;;;;;;;;;5050930;28;20445;-78
2022/05/21 00:48:00;;;;;;;4.27;4.07;;;;;;;;;;5051024;28;20589;-79
2022/05/21 00:50:29;;;;;;;4.50;4.20;;;;;;;;;;5051143;28;20457;-77
2022/05/21 00:52:57;;;;;;;4.50;3.97;;;;;;;;;;5050830;28;20545;-78
2022/05/21 00:55:27;;;;;;;4.60;4.30;;;;;;;;;;5050610;28;20923;-77
2022/05/21 01:00:38;;;;;;;4.20;3.90;;;;;;;;;;5049589;28;20453;-78
2022/05/21 01:03:06;;;;;;;4.60;4.30;;;;;;;;;;5050780;28;20474;-77
2022/05/21 01:05:33;;;;;;;4.67;4.37;;;;;;;;;;5050995;28;20444;-77
2022/05/21 01:08:01;;;;;;;3.80;3.60;;;;;;;;;;5050908;28;20477;-77
2022/05/21 01:10:29;;;;;;;4.77;4.37;;;;;;;;;;5050877;28;20468;-77
2022/05/21 01:12:57;;;;;;;4.43;3.73;;;;;;;;;;5050310;28;20493;-78
2022/05/21 01:15:28;;;;;;;4.47;3.87;;;;;;;;;;5050301;28;20808;-77
2022/05/21 01:17:56;;;;;;;4.17;3.90;;;;;;;;;;5050566;28;20499;-77
2022/05/21 01:20:25;;;;;;;4.37;3.93;;;;;;;;;;5050802;28;20450;-77
2022/05/21 01:22:54;;;;;;;4.00;3.70;;;;;;;;;;5050188;28;20445;-77
2022/05/21 01:25:22;;;;;;;5.30;3.40;;;;;;;;;;5051319;28;20449;-76
2022/05/21 01:27:50;;;;;;;4.27;4.07;;;;;;;;;;5050471;28;20482;-76
2022/05/21 01:30:18;;;;;;;4.20;3.70;;;;;;;;;;5050915;28;20430;-78
2022/05/21 01:32:47;;;;;;;4.03;3.83;;;;;;;;;;5050523;28;20442;-76
2022/05/21 01:35:14;;;;;;;9.23;8.43;;;;;;;;;;5050937;28;20536;-78
2022/05/21 01:37:42;;;;;;;4.53;3.23;;;;;;;;;;5050548;28;20837;-77
2022/05/21 01:40:11;;;;;;;6.00;3.77;;;;;;;;;;5051235;28;20474;-77
2022/05/21 01:42:39;;;;;;;3.73;3.43;;;;;;;;;;5052405;28;20512;-77
2022/05/21 01:45:05;;;;;;;4.63;3.87;;;;;;;;;;5054446;28;20508;-77
2022/05/21 01:47:32;;;;;;;3.80;3.60;;;;;;;;;;5054261;28;20465;-77
2022/05/21 01:50:00;;;;;;;3.77;3.57;;;;;;;;;;5054161;28;20444;-78
2022/05/21 01:52:27;;;;;;;5.30;4.30;;;;;;;;;;5054484;28;20568;-77
2022/05/21 01:54:54;;;;;;;4.17;3.97;;;;;;;;;;5053795;28;20449;-77
2022/05/21 01:57:22;;;;;;;4.50;4.10;;;;;;;;;;5054434;28;20441;-76
2022/05/21 01:59:49;;;;;;;4.20;3.90;;;;;;;;;;5054064;28;20457;-78
2022/05/21 02:02:17;;;;;;;4.03;3.73;;;;;;;;;;5053649;28;20520;-77
2022/05/21 02:04:44;;;;;;;4.20;4.00;;;;;;;;;;5053543;28;20499;-77
2022/05/21 02:07:11;;;;;;;4.17;3.83;;;;;;;;;;5054964;28;20445;-77
2022/05/21 02:09:38;;;;;;;4.20;3.90;;;;;;;;;;5062074;28;20485;-77
2022/05/21 02:12:06;;;;;;;4.50;4.10;;;;;;;;;;5064188;28;20441;-78
2022/05/21 02:14:35;;;;;;;3.97;3.77;;;;;;;;;;5068435;28;20453;-76
2022/05/21 02:17:02;;;;;;;5.37;4.17;;;;;;;;;;5061827;28;20445;-78
2022/05/21 02:19:29;;;;;;;4.43;4.13;;;;;;;;;;5053438;28;20915;-77
2022/05/21 02:21:57;;;;;;;4.73;4.20;;;;;;;;;;5053806;28;20450;-77
2022/05/21 02:24:24;;;;;;;4.20;3.90;;;;;;;;;;5053110;28;20442;-77
2022/05/21 02:26:51;;;;;;;4.27;3.97;;;;;;;;;;5053692;28;20907;-77
2022/05/21 02:29:18;;;;;;;8.80;5.17;;;;;;;;;;5053246;28;20481;-77
2022/05/21 02:31:47;;;;;;;7.50;5.30;;;;;;;;;;5053309;28;20492;-77
2022/05/21 02:34:14;;;;;;;5.17;4.67;;;;;;;;;;5053113;28;20450;-76
2022/05/21 02:39:26;;;;;;;5.10;4.70;;;;;;;;;;5059634;28;20448;-77
2022/05/21 02:41:53;;;;;;;6.07;4.80;;;;;;;;;;5057223;28;20484;-77
2022/05/21 02:44:20;;;;;;;5.73;5.33;;;;;;;;;;5053786;28;20480;-77
2022/05/21 02:46:49;;;;;;;5.70;5.20;;;;;;;;;;5052898;28;20930;-78
2022/05/21 02:49:16;;;;;;;6.00;5.43;;;;;;;;;;5052637;28;20975;-79
2022/05/21 02:51:43;;;;;;;4.97;4.57;;;;;;;;;;5053349;28;20450;-77
2022/05/21 02:54:14;;;;;;;6.53;5.33;;;;;;;;;;5055391;28;20441;-77
2022/05/21 02:56:43;;;;;;;5.13;4.63;;;;;;;;;;5063410;28;20442;-77
2022/05/21 02:59:11;;;;;;;5.27;4.87;;;;;;;;;;5056874;28;20445;-77
2022/05/21 03:01:38;;;;;;;5.77;5.37;;;;;;;;;;5054055;28;20976;-78
2022/05/21 03:04:07;;;;;;;6.10;5.50;;;;;;;;;;5053587;28;20464;-77
2022/05/21 03:06:34;;;;;;;5.70;5.30;;;;;;;;;;5053287;28;20523;-78
2022/05/21 03:11:46;;;;;;;5.80;5.30;;;;;;;;;;5052453;28;20433;-77
2022/05/21 03:14:13;;;;;;;7.53;6.27;;;;;;;;;;5051920;28;20449;-78
2022/05/21 03:16:40;;;;;;;6.03;5.63;;;;;;;;;;5052082;28;20812;-78
2022/05/21 03:19:09;;;;;;;6.27;5.70;;;;;;;;;;5052455;28;20492;-78
2022/05/21 03:21:36;;;;;;;6.53;6.03;;;;;;;;;;5052260;28;20961;-78
2022/05/21 03:24:03;;;;;;;6.33;5.83;;;;;;;;;;5052067;28;20445;-78
2022/05/21 03:26:31;;;;;;;6.00;5.50;;;;;;;;;;5052306;28;20438;-78
2022/05/21 03:28:58;;;;;;;5.23;4.83;;;;;;;;;;5052127;28;20537;-77
2022/05/21 03:31:25;;;;;;;6.60;5.90;;;;;;;;;;5052386;28;20445;-78
2022/05/21 03:33:52;;;;;;;6.30;5.73;;;;;;;;;;5051992;28;20824;-78
2022/05/21 03:36:21;;;;;;;5.43;5.13;;;;;;;;;;5051992;28;20476;-78
2022/05/21 03:38:49;;;;;;;6.30;5.90;;;;;;;;;;5051830;28;20461;-78
2022/05/21 03:41:16;;;;;;;6.37;5.87;;;;;;;;;;5051711;28;20486;-78
2022/05/21 03:43:44;;;;;;;7.20;6.10;;;;;;;;;;5052040;28;20453;-78
2022/05/21 03:46:11;;;;;;;6.57;6.13;;;;;;;;;;5049987;28;20477;-78
2022/05/21 03:48:38;;;;;;;6.20;5.80;;;;;;;;;;5049788;28;20477;-79
2022/05/21 03:51:05;;;;;;;7.10;5.70;;;;;;;;;;5051974;28;20635;-79
2022/05/21 03:53:34;;;;;;;6.43;5.90;;;;;;;;;;5051563;28;20507;-78
2022/05/21 03:56:01;;;;;;;7.80;7.20;;;;;;;;;;5051954;28;20452;-78
2022/05/21 03:58:28;;;;;;;6.67;6.07;;;;;;;;;;5051648;28;20458;-79
2022/05/21 04:00:55;;;;;;;7.13;6.53;;;;;;;;;;5051703;28;20694;-79
2022/05/21 04:03:22;;;;;;;6.27;5.87;;;;;;;;;;5051554;28;20446;-78
2022/05/21 04:05:49;;;;;;;6.67;6.27;;;;;;;;;;5051208;28;20811;-78
2022/05/21 04:08:17;;;;;;;6.60;6.00;;;;;;;;;;5051619;28;20519;-79
2022/05/21 04:10:46;;;;;;;7.13;6.50;;;;;;;;;;5051984;28;20445;-78
2022/05/21 04:13:13;;;;;;;7.37;6.60;;;;;;;;;;5051800;28;20591;-80
2022/05/21 04:15:40;;;;;;;6.73;6.23;;;;;;;;;;5049317;28;20456;-78
2022/05/21 04:18:07;;;;;;;6.40;5.97;;;;;;;;;;5047595;28;20465;-78
2022/05/21 04:20:34;;;;;;;6.80;6.30;;;;;;;;;;5050777;28;20808;-78
2022/05/21 04:23:01;;;;;;;5.80;5.30;;;;;;;;;;5051714;28;20472;-78
2022/05/21 04:25:28;;;;;;;6.00;5.60;;;;;;;;;;5051405;28;20546;-79
2022/05/21 04:27:57;;;;;;;6.23;5.83;;;;;;;;;;5051692;28;20458;-78
2022/05/21 04:30:26;;;;;;;6.47;5.90;;;;;;;;;;5051466;28;20531;-78
2022/05/21 04:32:54;;;;;;;6.27;5.77;;;;;;;;;;5050964;28;20930;-78
2022/05/21 04:35:21;;;;;;;5.20;4.83;;;;;;;;;;5051544;28;20445;-78
2022/05/21 04:37:49;;;;;;;6.43;5.83;;;;;;;;;;5051623;28;20500;-79
2022/05/21 04:40:17;;;;;;;6.13;5.73;;;;;;;;;;5051486;28;20760;-78
2022/05/21 04:42:44;;;;;;;5.63;5.23;;;;;;;;;;5051393;28;20441;-78
2022/05/21 04:45:13;;;;;;;5.77;5.33;;;;;;;;;;5054620;28;20445;-78
2022/05/21 04:47:40;;;;;;;6.00;5.50;;;;;;;;;;5062628;28;20472;-78
2022/05/21 04:50:08;;;;;;;4.87;4.57;;;;;;;;;;5061350;28;20504;-78
2022/05/21 04:52:35;;;;;;;5.60;5.20;;;;;;;;;;5051293;28;20990;-79
2022/05/21 04:55:02;;;;;;;5.30;4.90;;;;;;;;;;5051550;28;20468;-78
2022/05/21 04:57:29;;;;;;;6.00;5.50;;;;;;;;;;5051298;28;21029;-77
2022/05/21 04:59:56;;;;;;;5.07;4.73;;;;;;;;;;5051197;28;20499;-79
2022/05/21 05:02:25;;;;;;;5.60;4.50;;;;;;;;;;5051063;28;20453;-78
2022/05/21 05:04:52;;;;;;;5.17;4.77;;;;;;;;;;5051086;28;20458;-78
2022/05/21 05:07:19;;;;;;;4.47;4.17;;;;;;;;;;5051251;28;20433;-79
2022/05/21 05:09:46;;;;;;;4.40;4.10;;;;;;;;;;5051137;28;20517;-78
2022/05/21 05:12:13;;;;;;;5.03;4.63;;;;;;;;;;5050825;28;20441;-78
2022/05/21 05:14:40;;;;;;;3.63;3.43;;;;;;;;;;5051093;28;20449;-78
2022/05/21 05:17:08;;;;;;;4.03;3.73;;;;;;;;;;5052004;28;20443;-77
2022/05/21 05:19:36;;;;;;;3.67;3.33;;;;;;;;;;5054668;28;20532;-80
2022/05/21 05:22:03;;;;;;;3.60;3.40;;;;;;;;;;5054818;28;20440;-79
2022/05/21 05:24:30;;;;;;;4.17;3.77;;;;;;;;;;5054982;28;20438;-77
2022/05/21 05:26:57;;;;;;;3.37;3.17;;;;;;;;;;5055654;28;20827;-78
2022/05/21 05:29:24;;;;;;;3.70;3.50;;;;;;;;;;5060172;28;20485;-77
2022/05/21 05:31:51;;;;;;;6.07;3.03;;;;;;;;;;5057616;28;20444;-78
2022/05/21 05:34:18;;;;;;;2.90;2.70;;;;;;;;;;5053141;28;20453;-78
2022/05/21 05:36:47;;;;;;;3.27;2.97;;;;;;;;;;5057357;28;20453;-77
2022/05/21 05:39:14;;;;;;;3.40;3.20;;;;;;;;;;5067189;28;20453;-78
2022/05/21 05:41:41;;;;;;;3.10;2.90;;;;;;;;;;5066529;28;20477;-77
2022/05/21 05:44:08;;;;;;;3.60;3.40;;;;;;;;;;5062507;28;20441;-78
2022/05/21 05:46:36;;;;;;;3.53;2.87;;;;;;;;;;5060103;28;20941;-78
2022/05/21 05:49:03;;;;;;;2.93;2.73;;;;;;;;;;5059164;28;20984;-78
2022/05/21 05:51:30;;;;;;;3.00;2.80;;;;;;;;;;5054363;28;20485;-78
2022/05/21 05:53:59;;;;;;;3.60;3.23;;;;;;;;;;5054388;28;20502;-79
2022/05/21 05:56:26;;;;;;;3.07;2.83;;;;;;;;;;5054391;28;20499;-78
2022/05/21 06:01:37;;;;;;;3.27;2.97;;;;;;;;;;5055533;28;20416;-78
2022/05/21 06:04:05;;;;;;;2.70;2.50;;;;;;;;;;5054332;28;20491;-79
2022/05/21 06:06:32;;;;;;;2.50;2.30;;;;;;;;;;5053962;28;20434;-78
2022/05/21 06:09:00;;;;;;;3.30;2.50;;;;;;;;;;5054106;28;20462;-78
2022/05/21 06:11:27;;;;;;;2.80;2.60;;;;;;;;;;5054219;28;20445;-77
2022/05/21 06:13:54;;;;;;;4.30;2.40;;;;;;;;;;5053640;28;20441;-78
2022/05/21 06:16:21;;;;;;;3.33;2.57;;;;;;;;;;5054047;28;20446;-78
2022/05/21 06:18:50;;;;;;;3.20;2.50;;;;;;;;;;5053801;28;20473;-80
2022/05/21 06:21:17;;;;;;;4.70;2.00;;;;;;;;;;5051816;28;21363;-78
2022/05/21 06:23:44;;;;;;;2.50;2.00;;;;;;;;;;5051892;28;20477;-78
2022/05/21 06:26:13;;;;;;;2.10;1.90;;;;;;;;;;5053787;28;20816;-78
2022/05/21 06:28:40;;;;;;;1.90;1.70;;;;;;;;;;5060255;28;20477;-78
2022/05/21 06:31:08;;;;;;;4.27;2.30;;;;;;;;;;5061824;28;20481;-77
2022/05/21 06:33:35;;;;;;;3.00;2.23;;;;;;;;;;5056933;28;20485;-78
2022/05/21 06:36:03;;;;;;;1.87;1.77;;;;;;;;;;5060361;28;20437;-78
2022/05/21 06:38:30;;;;;;;2.07;1.67;;;;;;;;;;5053810;28;20488;-79
2022/05/21 06:40:57;;;;;;;1.97;1.87;;;;;;;;;;5053642;28;20433;-77
2022/05/21 06:43:26;;;;;;;2.03;1.93;;;;;;;;;;5053035;28;20475;-78
2022/05/21 06:45:53;;;;;;;1.80;1.70;;;;;;;;;;5053093;28;20540;-78
2022/05/21 06:48:20;;;;;;;2.90;2.40;;;;;;;;;;5053183;28;20515;-78
2022/05/21 06:50:48;;;;;;;2.70;1.73;;;;;;;;;;5052775;28;20484;-77
2022/05/21 06:53:15;;;;;;;1.90;1.80;;;;;;;;;;5052711;28;20456;-79
2022/05/21 06:55:42;;;;;;;1.80;1.60;;;;;;;;;;5052871;28;20955;-78
2022/05/21 06:58:10;;;;;;;1.97;1.83;;;;;;;;;;5052613;28;20985;-78
2022/05/21 07:00:38;;;;;;;3.67;1.57;;;;;;;;;;5048273;28;20452;-78
2022/05/21 07:03:05;;;;;;;3.03;2.10;;;;;;;;;;5052683;28;20461;-78
2022/05/21 07:08:19;;;;;;;1.67;1.57;;;;;;;;;;5052638;28;20527;-78
2022/05/21 07:10:46;;;;;;;1.67;1.57;;;;;;;;;;5053098;28;20560;-78
2022/05/21 07:13:13;;;;;;;2.00;1.80;;;;;;;;;;5052517;28;20444;-79
2022/05/21 07:15:41;;;;;;;1.53;1.20;;;;;;;;;;5051416;28;20838;-79
2022/05/21 07:18:09;;;;;;;3.13;1.80;;;;;;;;;;5052386;28;20523;-78
2022/05/21 07:20:36;;;;;;;3.07;1.43;;;;;;;;;;5050752;28;20460;-78
2022/05/21 07:23:03;;;;;;;1.80;1.70;;;;;;;;;;5052285;28;20458;-79
2022/05/21 07:25:32;;;;;;;1.87;1.77;;;;;;;;;;5052195;28;20442;-78
2022/05/21 07:27:59;;;;;;;2.30;2.13;;;;;;;;;;5052620;28;20515;-78
2022/05/21 07:30:26;;;;;;;1.90;1.70;;;;;;;;;;5052248;28;20902;-78
2022/05/21 07:32:55;;;;;;;1.90;1.80;;;;;;;;;;5052671;28;20453;-79
2022/05/21 07:35:23;;;;;;;1.50;1.40;;;;;;;;;;5052460;28;20434;-78
2022/05/21 07:37:50;;;;;;;1.73;1.63;;;;;;;;;;5050353;28;21019;-77
2022/05/21 07:40:18;;;;;;;1.80;1.70;;;;;;;;;;5048985;28;20449;-78
2022/05/21 07:42:45;;;;;;;1.93;1.50;;;;;;;;;;5048266;28;20576;-78
2022/05/21 07:45:13;;;;;;;1.30;1.30;;;;;;;;;;5051543;28;20949;-77
2022/05/21 07:47:40;;;;;;;1.50;1.40;;;;;;;;;;5051809;28;20895;-77
2022/05/21 07:50:09;;;;;;;2.10;1.13;;;;;;;;;;5051963;28;20507;-78
2022/05/21 07:52:36;;;;;;;5.73;1.30;;;;;;;;;;5034918;28;20460;-79
2022/05/21 07:55:04;;;;;;;4.20;1.30;;;;;;;;;;5051703;28;20530;-78
2022/05/21 07:57:31;;;;;;;2.20;1.30;;;;;;;;;;5051513;28;20892;-79
2022/05/21 07:59:58;;;;;;;3.23;1.10;;;;;;;;;;5051537;28;20445;-79
2022/05/21 08:02:25;;;;;;;1.33;1.07;;;;;;;;;;5047833;28;20480;-80
2022/05/21 08:04:53;;;;;;;2.00;1.17;;;;;;;;;;5051169;28;20464;-78
2022/05/21 08:07:21;;;;;;;2.20;1.30;;;;;;;;;;5051599;28;20503;-77
2022/05/21 08:09:48;;;;;;;1.40;1.00;;;;;;;;;;5051504;28;20573;-79
2022/05/21 08:12:17;;;;;;;1.10;1.00;;;;;;;;;;5051393;28;20480;-79
2022/05/21 08:14:45;;;;;;;1.10;1.00;;;;;;;;;;5051236;28;20450;-77
2022/05/21 08:17:12;;;;;;;1.13;1.13;;;;;;;;;;5051532;28;20525;-78
2022/05/21 08:19:40;;;;;;;1.10;1.10;;;;;;;;;;5051637;28;20457;-78
2022/05/21 08:27:38;;;;;;;1.33;1.23;;;;;;;;;;5046730;28;20781;-78
2022/05/21 08:30:06;;;;;;;1.23;0.90;;;;;;;;;;5051658;28;20495;-77
2022/05/21 08:32:33;;;;;;;0.87;0.87;;;;;;;;;;5051657;28;20541;-77
2022/05/21 08:35:00;;;;;;;2.03;1.10;;;;;;;;;;5052380;28;20485;-78
2022/05/21 08:37:28;;;;;;;1.00;0.90;;;;;;;;;;5051279;28;20441;-78
2022/05/21 08:39:56;;;;;;;2.03;1.03;;;;;;;;;;5051539;28;20450;-78
2022/05/21 08:42:28;;;;;;;2.17;1.57;;;;;;;;;;5057366;28;20825;-78
2022/05/21 08:45:01;;;;;;;1.40;1.13;;;;;;;;;;5054140;28;20827;-78
2022/05/21 08:47:32;;;;;;;0.80;0.80;;;;;;;;;;5051280;28;20438;-78
2022/05/21 08:50:00;;;;;;;0.93;0.90;;;;;;;;;;5052009;28;20481;-79
2022/05/21 08:52:30;;;;;;;2.90;1.13;;;;;;;;;;5057273;28;20449;-78
2022/05/21 08:55:00;;;;;;;0.83;0.83;;;;;;;;;;5055766;28;20449;-78
2022/05/21 08:57:28;;;;;;;2.10;1.30;;;;;;;;;;5055085;28;20441;-78
2022/05/21 08:59:57;;;;;;;0.90;0.90;;;;;;;;;;5054935;28;20457;-79
2022/05/21 09:02:28;;;;;;;1.60;1.50;;;;;;;;;;5055656;28;20499;-78
2022/05/21 09:04:55;;;;;;;1.23;1.20;;;;;;;;;;5055599;28;20445;-79
2022/05/21 09:07:24;;;;;;;1.10;1.00;;;;;;;;;;5056415;28;20937;-78
2022/05/21 09:10:01;;;;;;;1.70;1.07;;;;;;;;;;5055652;28;20458;-78
2022/05/21 09:12:34;;;;;;;1.83;1.10;;;;;;;;;;5055064;28;20441;-78
2022/05/21 09:15:03;;;;;;;2.80;1.00;;;;;;;;;;5055802;28;20445;-78
2022/05/21 09:17:30;;;;;;;1.03;1.00;;;;;;;;;;5055581;28;20491;-78
2022/05/21 09:19:58;;;;;;;1.00;1.00;;;;;;;;;;5054979;28;20881;-79
2022/05/21 09:22:26;;;;;;;1.40;1.00;;;;;;;;;;5054527;28;20438;-78
2022/05/21 09:24:54;;;;;;;1.33;0.90;;;;;;;;;;5054172;28;20563;-78
2022/05/21 09:27:30;;;;;;;1.10;1.00;;;;;;;;;;5053489;28;20489;-78
2022/05/21 09:30:13;;;;;;;1.30;1.20;;;;;;;;;;5044978;28;20987;-77
2022/05/21 09:32:42;;;;;;;0.83;0.83;;;;;;;;;;5045518;28;20973;-78
2022/05/21 09:35:11;;;;;;;1.07;0.90;;;;;;;;;;5051002;28;20450;-78
2022/05/21 09:37:39;;;;;;;1.17;1.10;;;;;;;;;;5054007;28;20501;-78
2022/05/21 09:40:23;;;;;;;1.27;0.97;;;;;;;;;;5054110;28;20445;-77
2022/05/21 09:45:40;;;;;;;1.40;1.30;;;;;;;;;;5054121;28;20529;-77
2022/05/21 09:48:21;;;;;;;0.87;0.80;;;;;;;;;;5054056;28;20469;-78
2022/05/21 09:50:50;;;;;;;1.73;1.13;;;;;;;;;;5054110;28;20484;-78
2022/05/21 09:53:31;;;;;;;1.50;1.10;;;;;;;;;;5053225;28;20456;-78
2022/05/21 09:55:59;;;;;;;1.20;1.20;;;;;;;;;;5047902;28;20461;-78
2022/05/21 09:58:27;;;;;;;1.10;1.00;;;;;;;;;;5052715;28;20465;-77
2022/05/21 10:00:57;;;;;;;2.53;0.97;;;;;;;;;;5053869;28;20437;-79
2022/05/21 10:03:36;;;;;;;1.17;1.07;;;;;;;;;;5052392;28;20464;-78
2022/05/21 10:06:05;;;;;;;1.00;1.00;;;;;;;;;;5053370;28;20453;-77
2022/05/21 10:11:23;;;;;;;1.07;1.07;;;;;;;;;;5053249;28;20562;-77
2022/05/21 10:13:53;;;;;;;1.37;1.00;;;;;;;;;;5052460;28;20587;-77
2022/05/21 10:16:26;;;;;;;1.10;1.00;;;;;;;;;;5053131;28;20445;-77
2022/05/21 10:18:56;;;;;;;1.30;0.80;;;;;;;;;;5053408;28;20473;-77
2022/05/21 10:21:26;;;;;;;1.07;0.97;;;;;;;;;;5053299;28;20430;-78
2022/05/21 10:23:57;;;;;;;0.80;0.80;;;;;;;;;;5052932;28;20442;-78
2022/05/21 10:26:34;;;;;;;1.57;1.20;;;;;;;;;;5053677;28;20433;-78
2022/05/21 10:29:10;;;;;;;1.60;1.23;;;;;;;;;;5053467;28;20457;-78
2022/05/21 10:31:44;;;;;;;1.33;1.00;;;;;;;;;;5053189;28;21008;-77
2022/05/21 10:34:20;;;;;;;1.50;1.40;;;;;;;;;;5053598;28;20449;-77
2022/05/21 10:36:54;;;;;;;3.40;1.00;;;;;;;;;;5053202;28;20449;-77
2022/05/21 10:39:45;;;;;;;2.83;1.10;;;;;;;;;;5053159;28;20686;-77
2022/05/21 10:42:19;;;;;;;1.10;1.10;;;;;;;;;;5052567;28;20932;-77
2022/05/21 10:44:52;;;;;;;1.10;1.00;;;;;;;;;;5053436;28;20532;-76
2022/05/21 10:47:25;;;;;;;1.33;1.20;;;;;;;;;;5063224;28;20473;-77
2022/05/21 10:50:06;;;;;;;1.03;1.00;;;;;;;;;;5062324;28;20448;-76
2022/05/21 10:52:38;;;;;;;1.97;1.43;;;;;;;;;;5059031;28;20473;-76
2022/05/21 10:55:14;;;;;;;1.77;1.10;;;;;;;;;;5056060;28;20942;-77
2022/05/21 10:57:46;;;;;;;1.70;0.90;;;;;;;;;;5053803;28;20496;-77
2022/05/21 11:00:16;;;;;;;1.20;1.10;;;;;;;;;;5054228;28;20445;-77
2022/05/21 11:03:04;;;;;;;4.10;1.20;;;;;;;;;;5053051;28;20468;-76
2022/05/21 11:05:35;;;;;;;2.10;0.70;;;;;;;;;;5052540;28;20632;-77
2022/05/21 11:08:05;;;;;;;1.10;1.00;;;;;;;;;;5054156;28;20461;-76
2022/05/21 11:10:36;;;;;;;0.70;0.70;;;;;;;;;;5052249;28;20549;-77
2022/05/21 11:13:07;;;;;;;2.27;0.83;;;;;;;;;;5052039;28;20449;-77
2022/05/21 11:15:38;;;;;;;1.00;0.80;;;;;;;;;;5050840;28;20450;-78
2022/05/21 11:18:09;;;;;;;1.70;1.37;;;;;;;;;;5052379;28;21028;-77
2022/05/21 11:20:38;;;;;;;2.13;1.13;;;;;;;;;;5052238;28;20441;-77
2022/05/21 11:23:08;;;;;;;4.07;1.37;;;;;;;;;;5051806;28;20449;-77
2022/05/21 11:25:38;;;;;;;4.03;1.20;;;;;;;;;;5051866;28;20450;-77
2022/05/21 11:28:14;;;;;;;1.37;0.90;;;;;;;;;;5052109;28;20822;-77
2022/05/21 11:30:41;;;;;;;1.20;0.90;;;;;;;;;;5052200;28;20449;-77
2022/05/21 11:38:45;;;;;;;1.80;0.80;;;;;;;;;;5051846;28;20440;-77
2022/05/21 11:41:27;;;;;;;1.53;1.00;;;;;;;;;;5051926;28;20438;-78
2022/05/21 11:46:48;;;;;;;1.53;1.30;;;;;;;;;;5048409;28;20508;-76
2022/05/21 11:49:34;;;;;;;1.40;1.10;;;;;;;;;;5048551;28;20457;-76
2022/05/21 11:52:22;;;;;;;1.33;0.90;;;;;;;;;;5051741;28;20564;-77
2022/05/21 11:55:02;;;;;;;1.83;0.90;;;;;;;;;;5050972;28;20446;-77
2022/05/21 11:57:33;;;;;;;1.53;0.90;;;;;;;;;;5050459;28;20472;-77
2022/05/21 12:00:00;;;;;;;1.00;0.90;;;;;;;;;;5054002;28;20491;-77
2022/05/21 12:02:29;;;;;;;2.40;1.30;;;;;;;;;;5052664;28;20434;-77
2022/05/21 12:04:59;;;;;;;2.30;1.10;;;;;;;;;;5049605;28;20446;-77
2022/05/21 12:07:46;;;;;;;1.63;1.10;;;;;;;;;;5039563;28;20533;-78
2022/05/21 12:10:16;;;;;;;2.80;0.97;;;;;;;;;;5044454;28;20504;-77
2022/05/21 12:13:05;;;;;;;2.10;1.13;;;;;;;;;;5051041;28;20473;-77
2022/05/21 12:15:36;;;;;;;2.97;1.07;;;;;;;;;;5047742;28;21154;-77
2022/05/21 12:18:04;;;;;;;0.90;0.90;;;;;;;;;;5042484;28;20473;-78
2022/05/21 12:20:43;;;;;;;3.80;1.10;;;;;;;;;;5052157;28;20525;-77
2022/05/21 12:23:13;;;;;;;1.90;1.30;;;;;;;;;;5046048;28;20495;-77
2022/05/21 12:25:58;;;;;;;1.30;1.20;;;;;;;;;;5052014;28;20473;-77
2022/05/21 12:28:38;;;;;;;1.30;1.00;;;;;;;;;;5035290;28;20465;-77
2022/05/21 12:31:07;;;;;;;1.87;1.00;;;;;;;;;;5051218;28;20477;-77
2022/05/21 12:33:40;;;;;;;1.40;1.10;;;;;;;;;;5046326;28;20458;-77
2022/05/21 12:36:14;;;;;;;4.07;1.20;;;;;;;;;;5049496;28;20437;-77
2022/05/21 12:38:44;;;;;;;1.90;1.00;;;;;;;;;;5045918;28;20665;-78
2022/05/21 12:41:13;;;;;;;2.07;1.03;;;;;;;;;;5049318;28;20438;-78
2022/05/21 12:43:45;;;;;;;1.00;0.87;;;;;;;;;;5050485;28;20445;-78
2022/05/21 12:46:19;;;;;;;1.80;1.10;;;;;;;;;;5051331;28;20442;-78
2022/05/21 12:48:46;;;;;;;0.90;0.90;;;;;;;;;;5053778;28;20995;-77
2022/05/21 12:51:24;;;;;;;2.30;0.90;;;;;;;;;;5055913;28;20482;-77
2022/05/21 12:53:52;;;;;;;1.57;0.97;;;;;;;;;;5059126;28;20445;-77
2022/05/21 12:56:20;;;;;;;2.10;1.30;;;;;;;;;;5057913;28;20452;-78
2022/05/21 12:58:47;;;;;;;1.30;0.97;;;;;;;;;;5059227;28;20477;-77
2022/05/21 13:01:23;;;;;;;1.07;0.73;;;;;;;;;;5058815;28;20437;-77
2022/05/21 13:03:50;;;;;;;1.20;1.10;;;;;;;;;;5057991;28;20441;-78
2022/05/21 13:06:21;;;;;;;1.57;1.00;;;;;;;;;;5057107;28;20503;-78
2022/05/21 13:08:50;;;;;;;2.73;1.13;;;;;;;;;;5056968;28;20461;-77
2022/05/21 13:11:18;;;;;;;1.70;1.10;;;;;;;;;;5055243;28;20481;-77
2022/05/21 13:13:46;;;;;;;0.93;0.90;;;;;;;;;;5052783;28;20520;-79
2022/05/21 13:16:15;;;;;;;1.03;1.00;;;;;;;;;;5055655;28;20994;-80
2022/05/21 13:18:51;;;;;;;1.90;1.10;;;;;;;;;;5051026;28;20551;-78
2022/05/21 13:21:25;;;;;;;1.57;1.20;;;;;;;;;;5051018;28;20437;-79
2022/05/21 13:23:58;;;;;;;1.47;1.00;;;;;;;;;;5049695;28;20434;-78
2022/05/21 13:26:27;;;;;;;1.20;1.10;;;;;;;;;;5049387;28;20449;-79
2022/05/21 13:29:11;;;;;;;1.23;1.13;;;;;;;;;;5050908;28;20819;-80
2022/05/21 13:31:39;;;;;;;1.70;1.20;;;;;;;;;;5046133;28;21059;-78
2022/05/21 13:34:06;;;;;;;1.10;0.93;;;;;;;;;;5050769;28;20445;-79
2022/05/21 13:36:34;;;;;;;1.03;1.03;;;;;;;;;;5046053;28;20462;-79
2022/05/21 13:39:02;;;;;;;2.20;0.93;;;;;;;;;;5053044;28;20476;-78
2022/05/21 13:41:31;;;;;;;1.30;1.20;;;;;;;;;;5054653;28;20445;-79
2022/05/21 13:43:58;;;;;;;3.30;1.03;;;;;;;;;;5053882;28;20494;-79
2022/05/21 13:46:28;;;;;;;2.70;1.20;;;;;;;;;;5053282;28;20495;-79
2022/05/21 13:48:56;;;;;;;1.30;0.90;;;;;;;;;;5054419;28;20465;-77
2022/05/21 13:51:24;;;;;;;2.00;1.10;;;;;;;;;;5053653;28;20529;-78
2022/05/21 13:53:53;;;;;;;2.70;0.90;;;;;;;;;;5053580;28;20472;-77
2022/05/21 13:56:47;;;;;;;2.17;1.40;;;;;;;;;;5055329;28;20959;-78
2022/05/21 13:59:18;;;;;;;1.20;1.10;;;;;;;;;;5026265;28;20469;-77
2022/05/21 14:01:55;;;;;;;2.43;1.13;;;;;;;;;;5056794;28;20476;-78
2022/05/21 14:04:34;;;;;;;1.17;1.00;;;;;;;;;;5055600;28;20853;-76
2022/05/21 14:07:23;;;;;;;2.90;1.10;;;;;;;;;;5055687;28;20646;-77
2022/05/21 14:10:02;;;;;;;4.73;1.30;;;;;;;;;;5053318;28;20449;-75
2022/05/21 14:15:26;;;;;;;4.00;1.43;;;;;;;;;;5043312;28;20580;-75
2022/05/21 14:17:55;;;;;;;1.30;1.20;;;;;;;;;;5052957;28;20504;-76
2022/05/21 14:20:24;;;;;;;1.63;1.17;;;;;;;;;;5053300;28;20631;-77
2022/05/21 14:22:51;;;;;;;1.20;1.10;;;;;;;;;;5063057;28;20449;-76
2022/05/21 14:25:24;;;;;;;2.90;1.53;;;;;;;;;;5055197;28;20453;-76
2022/05/21 14:27:57;;;;;;;3.30;1.17;;;;;;;;;;5053590;28;20519;-75
2022/05/21 14:30:33;;;;;;;2.03;1.30;;;;;;;;;;5051534;28;20811;-77
2022/05/21 14:33:10;;;;;;;2.43;2.23;;;;;;;;;;5051449;28;20480;-76
2022/05/21 14:35:37;;;;;;;3.10;1.10;;;;;;;;;;5049184;28;20522;-77
2022/05/21 14:38:04;;;;;;;1.37;1.30;;;;;;;;;;5046730;28;20461;-78
2022/05/21 14:40:33;;;;;;;2.40;1.17;;;;;;;;;;5052746;28;20951;-77
2022/05/21 14:43:04;;;;;;;1.70;1.60;;;;;;;;;;5051534;28;20426;-78
2022/05/21 14:45:33;;;;;;;2.50;1.13;;;;;;;;;;5052806;28;20445;-79
2022/05/21 14:47:59;;;;;;;2.20;1.20;;;;;;;;;;5052464;28;20470;-77
2022/05/21 14:53:13;;;;;;;1.50;1.00;;;;;;;;;;5051765;28;20592;-77
2022/05/21 14:55:42;;;;;;;1.63;1.00;;;;;;;;;;5056239;28;20531;-78
2022/05/21 14:58:09;;;;;;;1.50;1.40;;;;;;;;;;5052342;28;20601;-79
2022/05/21 15:00:36;;;;;;;1.23;1.03;;;;;;;;;;5053295;28;20457;-77
2022/05/21 15:03:04;;;;;;;0.80;0.80;;;;;;;;;;5055322;28;20982;-79
2022/05/21 15:05:32;;;;;;;1.30;1.00;;;;;;;;;;5053135;28;20445;-76
2022/05/21 15:08:00;;;;;;;2.40;1.60;;;;;;;;;;5052813;28;20507;-76
2022/05/21 15:10:27;;;;;;;1.60;1.17;;;;;;;;;;5053259;28;21051;-77
2022/05/21 15:12:55;;;;;;;1.07;1.03;;;;;;;;;;5052408;28;20499;-78
2022/05/21 15:15:23;;;;;;;2.03;1.10;;;;;;;;;;5050266;28;20448;-77
2022/05/21 15:17:51;;;;;;;1.20;1.10;;;;;;;;;;5047453;28;20476;-77
2022/05/21 15:20:20;;;;;;;1.27;1.17;;;;;;;;;;5050697;28;20438;-78
2022/05/21 15:22:49;;;;;;;1.73;1.10;;;;;;;;;;5051529;28;20829;-77
2022/05/21 15:25:18;;;;;;;1.27;1.10;;;;;;;;;;5058106;28;20470;-77
2022/05/21 15:27:47;;;;;;;1.50;1.10;;;;;;;;;;5061250;28;20488;-76
2022/05/21 15:30:18;;;;;;;2.80;1.03;;;;;;;;;;5055500;28;20461;-76
2022/05/21 15:32:45;;;;;;;1.53;1.13;;;;;;;;;;5060593;28;20477;-77
2022/05/21 15:35:13;;;;;;;1.40;1.27;;;;;;;;;;5071422;28;20448;-77